EmailTwitter


Observations de surface / France / LFBD (07510)

Régions: Québec | Canada | États-Unis | Europe | France | UK | Ailleurs
Station
Affichage
Infos & localisation pour LFBD (07510) | Aide pour décoder les METARs

Observations prises le 2019-02-18 à 05H30 UTC à BORDEAUX/MERIGNA, FR (LFBD)

Température: 7.0 Celsius

Point de rosée: 6.0 Celsius

Humidité relative: 93%

Facteur vent: 4.

Vents: Sud-est à 17 km/h ou 9 noeuds.

Pression au niveau moyen de la mer: 101.80 kilopascals.

Observation METAR:

LFBD 180530Z AUTO 14009KT CAVOK 07/06 Q1018 TEMPO 4000 BR=